Time;durP1;ratioP1;P1;durP2;ratioP2;P2;SDS_P1;SDS_P2;PMS_P1;PMS_P2;Temp;Humidity;BMP_temperature;BMP_pressure;BME280_temperature;BME280_humidity;BME280_pressure;Samples;Min_cycle;Max_cycle;Signal;HPM_P1;HPM_P2
2021/09/19 00:00:45;;;;;;;7.03;3.88;;;;;;;15.48;69.03;99656.81;1087631;54;20030;-78
2021/09/19 00:01:49;;;;;;;6.82;3.40;;;;;;;15.54;68.91;99666.81;1087716;54;20062;-79
2021/09/19 00:02:53;;;;;;;5.45;4.15;;;;;;;15.48;69.21;99662.19;1089121;39;20696;-79
2021/09/19 00:03:55;;;;;;;5.78;4.20;;;;;;;15.51;69.13;99661.78;1087709;54;20034;-79
2021/09/19 00:04:59;;;;;;;5.18;3.80;;;;;;;15.55;68.69;99663.09;1087675;54;20086;-78
2021/09/19 00:06:01;;;;;;;7.70;3.90;;;;;;;15.54;68.49;99656.03;1087586;54;20034;-79
2021/09/19 00:07:05;;;;;;;5.88;3.30;;;;;;;15.52;68.72;99661.63;1087665;54;20086;-80
2021/09/19 00:08:07;;;;;;;8.07;3.78;;;;;;;15.54;68.79;99661.44;1088590;39;21069;-79
2021/09/19 00:09:11;;;;;;;6.25;3.38;;;;;;;15.56;68.57;99654.81;1087711;54;20033;-80
2021/09/19 00:10:18;;;;;;;5.20;3.58;;;;;;;15.58;68.70;99657.34;1087951;47;20058;-81
2021/09/19 00:11:19;;;;;;;8.00;3.78;;;;;;;15.58;68.78;99658.19;1087646;54;20690;-79
2021/09/19 00:12:24;;;;;;;6.35;3.28;;;;;;;15.62;68.50;99661.31;1087704;54;20030;-78
2021/09/19 00:13:25;;;;;;;6.53;3.75;;;;;;;15.59;68.51;99661.69;1090127;39;20630;-78
2021/09/19 00:14:34;;;;;;;4.90;3.45;;;;;;;15.56;68.39;99657.53;1087688;54;20034;-79
2021/09/19 00:15:36;;;;;;;6.60;3.85;;;;;;;15.47;68.85;99649.75;1087740;54;20035;-78
2021/09/19 00:16:40;;;;;;;6.40;4.05;;;;;;;15.44;68.36;99656.34;1087733;54;20054;-78
2021/09/19 00:17:42;;;;;;;6.45;3.70;;;;;;;15.40;68.68;99658.53;1087694;54;20030;-79
2021/09/19 00:18:46;;;;;;;6.70;4.03;;;;;;;15.36;68.88;99668.03;1087732;54;20037;-80
2021/09/19 00:19:50;;;;;;;6.63;4.40;;;;;;;15.31;69.12;99661.53;1087669;54;20057;-78
2021/09/19 00:20:52;;;;;;;5.70;4.10;;;;;;;15.28;69.03;99657.34;1087591;54;20761;-80
2021/09/19 00:21:56;;;;;;;5.50;3.70;;;;;;;15.29;68.84;99659.03;1088809;39;20846;-80
2021/09/19 00:23:01;;;;;;;6.85;3.83;;;;;;;15.32;68.92;99649.75;1087617;54;20030;-80
2021/09/19 00:24:06;;;;;;;5.28;4.05;;;;;;;15.25;69.15;99655.03;1088446;39;20643;-79
2021/09/19 00:25:16;;;;;;;5.75;4.47;;;;;;;15.24;69.26;99653.34;1087711;54;20042;-80
2021/09/19 00:26:18;;;;;;;5.10;3.85;;;;;;;15.20;69.16;99649.38;1087619;54;20030;-79
2021/09/19 00:27:24;;;;;;;6.03;4.35;;;;;;;15.21;69.36;99651.88;1087642;54;20090;-80
2021/09/19 00:28:29;;;;;;;5.97;3.95;;;;;;;15.21;69.17;99653.75;1092238;39;20915;-78
2021/09/19 00:29:35;;;;;;;6.57;4.28;;;;;;;15.23;69.23;99648.97;1087653;54;20042;-79
2021/09/19 00:30:37;;;;;;;6.32;4.70;;;;;;;15.23;69.10;99654.38;1088662;39;20594;-79
2021/09/19 00:31:42;;;;;;;6.35;3.78;;;;;;;15.28;68.88;99646.59;1087627;54;20092;-80
2021/09/19 00:33:09;;;;;;;5.70;4.10;;;;;;;15.16;69.67;99648.06;1087472;54;20038;-80
2021/09/19 00:34:14;;;;;;;5.47;3.85;;;;;;;15.15;69.43;99647.22;1088067;47;20082;-78
2021/09/19 00:35:18;;;;;;;6.30;3.72;;;;;;;15.14;69.45;99653.63;1087694;54;20726;-79
2021/09/19 00:36:19;;;;;;;6.20;4.00;;;;;;;15.10;69.61;99645.09;1087542;54;20671;-79
2021/09/19 00:37:23;;;;;;;5.90;4.30;;;;;;;15.02;69.83;99641.63;1089236;31;20722;-78
2021/09/19 00:38:25;;;;;;;8.85;6.70;;;;;;;15.00;69.78;99644.50;1087946;47;20833;-78
2021/09/19 00:39:29;;;;;;;8.00;5.93;;;;;;;15.05;69.82;99641.28;1087592;54;20741;-77
2021/09/19 00:40:31;;;;;;;8.88;5.50;;;;;;;15.00;69.74;99639.13;1087487;54;20038;-80
2021/09/19 00:41:35;;;;;;;7.97;4.68;;;;;;;15.05;69.47;99641.28;1087709;54;20030;-79
2021/09/19 00:42:37;;;;;;;6.57;4.15;;;;;;;15.01;69.86;99637.25;1087983;54;20042;-77
2021/09/19 00:43:41;;;;;;;5.88;3.90;;;;;;;14.98;69.76;99636.59;1087978;54;20037;-78
2021/09/19 00:44:46;;;;;;;6.60;3.78;;;;;;;15.01;69.54;99639.97;1087847;54;20034;-78
2021/09/19 00:45:50;;;;;;;9.45;3.88;;;;;;;15.04;69.61;99634.22;1087985;54;20054;-77
2021/09/19 00:46:52;;;;;;;4.82;3.30;;;;;;;15.06;69.57;99630.31;1087995;54;20034;-77
2021/09/19 00:47:56;;;;;;;7.20;3.22;;;;;;;15.08;69.41;99632.81;1088053;54;20027;-79
2021/09/19 00:48:58;;;;;;;5.63;3.70;;;;;;;15.07;69.44;99639.22;1088076;54;20031;-78
2021/09/19 00:50:03;;;;;;;5.05;3.40;;;;;;;15.09;69.24;99637.19;1087713;54;20030;-77
2021/09/19 00:51:05;;;;;;;6.22;3.40;;;;;;;15.10;69.11;99637.00;1092070;39;20958;-77
2021/09/19 00:52:09;;;;;;;4.55;3.40;;;;;;;15.07;69.16;99631.13;1087962;54;20031;-78
2021/09/19 00:53:15;;;;;;;5.85;3.70;;;;;;;15.06;69.34;99632.19;1087932;54;20026;-78
2021/09/19 00:54:18;;;;;;;5.00;3.58;;;;;;;15.00;69.27;99632.91;1087933;54;20030;-77
2021/09/19 00:55:23;;;;;;;6.10;3.28;;;;;;;15.01;69.40;99629.19;1087293;54;20036;-78
2021/09/19 00:56:27;;;;;;;9.10;6.38;;;;;;;14.93;69.63;99633.66;1087878;54;20038;-79
2021/09/19 00:57:31;;;;;;;7.25;4.72;;;;;;;14.94;69.44;99629.09;1087957;54;20030;-78
2021/09/19 00:58:33;;;;;;;6.55;5.15;;;;;;;14.91;69.63;99629.47;1088028;54;20041;-78
2021/09/19 00:59:38;;;;;;;6.40;4.40;;;;;;;14.92;69.67;99626.59;1088036;54;20038;-78
2021/09/19 01:00:49;;;;;;;5.63;4.28;;;;;;;14.90;69.65;99625.09;1087944;54;20079;-77
2021/09/19 01:01:51;;;;;;;5.97;3.63;;;;;;;14.84;69.72;99628.50;1088073;54;20030;-78
2021/09/19 01:02:56;;;;;;;5.65;3.70;;;;;;;14.89;69.54;99616.19;1087890;54;20038;-78
2021/09/19 01:04:02;;;;;;;4.57;3.08;;;;;;;14.85;69.35;99630.19;1088775;46;20030;-78
2021/09/19 01:05:06;;;;;;;5.30;3.50;;;;;;;14.90;69.32;99622.41;1087927;54;20034;-77
2021/09/19 01:06:11;;;;;;;5.45;3.40;;;;;;;14.88;69.25;99619.88;1087994;54;20780;-78
2021/09/19 01:07:13;;;;;;;5.35;3.47;;;;;;;14.88;69.30;99624.44;1093352;39;20144;-79
2021/09/19 01:08:18;;;;;;;4.80;3.10;;;;;;;14.87;69.38;99620.94;1087889;54;20038;-78
2021/09/19 01:09:21;;;;;;;5.03;3.45;;;;;;;14.79;69.67;99619.16;1087988;54;20057;-77
2021/09/19 01:10:27;;;;;;;6.30;3.60;;;;;;;14.74;69.49;99616.16;1087980;54;20037;-78
2021/09/19 01:11:29;;;;;;;5.93;3.47;;;;;;;14.72;69.73;99607.44;1087950;54;20026;-78
2021/09/19 01:12:34;;;;;;;4.90;3.20;;;;;;;14.73;69.66;99613.66;1087872;54;20034;-77
2021/09/19 01:13:39;;;;;;;5.28;3.50;;;;;;;14.72;69.59;99612.81;1087895;54;20053;-78
2021/09/19 01:14:41;;;;;;;5.50;3.70;;;;;;;14.67;69.95;99609.84;1087666;54;20035;-78
2021/09/19 01:15:49;;;;;;;4.43;3.25;;;;;;;14.70;69.59;99612.16;1087957;54;20030;-78
2021/09/19 01:16:52;;;;;;;5.60;3.58;;;;;;;14.69;69.70;99610.50;1087980;54;20031;-78
2021/09/19 01:17:56;;;;;;;5.97;3.60;;;;;;;14.61;69.93;99614.06;1087934;54;20053;-78
2021/09/19 01:19:00;;;;;;;4.85;3.45;;;;;;;14.67;69.88;99612.53;1087931;54;20034;-78
2021/09/19 01:20:05;;;;;;;5.95;3.63;;;;;;;14.61;69.97;99613.22;1087985;54;20067;-78
2021/09/19 01:21:11;;;;;;;5.57;3.20;;;;;;;14.59;69.88;99609.88;1087859;54;20035;-77
2021/09/19 01:22:13;;;;;;;5.05;3.25;;;;;;;14.63;69.75;99605.81;1088021;54;20031;-79
2021/09/19 01:23:17;;;;;;;5.97;3.55;;;;;;;14.58;69.91;99609.06;1087867;54;20034;-78
2021/09/19 01:24:25;;;;;;;7.20;3.83;;;;;;;14.55;70.06;99609.41;1087970;54;21099;-78
2021/09/19 01:25:30;;;;;;;5.38;3.33;;;;;;;14.53;70.19;99600.69;1087815;54;20128;-77
2021/09/19 01:26:32;;;;;;;4.82;2.53;;;;;;;14.61;70.04;99599.78;1087918;54;20050;-78
2021/09/19 01:27:37;;;;;;;6.55;2.90;;;;;;;14.59;70.00;99604.50;1087914;54;20034;-78
2021/09/19 01:28:38;;;;;;;5.75;3.25;;;;;;;14.66;69.69;99600.06;1087974;54;20018;-78
2021/09/19 01:29:43;;;;;;;6.53;2.70;;;;;;;14.72;69.47;99598.53;1087930;54;20038;-77
2021/09/19 01:30:45;;;;;;;4.25;2.78;;;;;;;14.74;69.65;99602.69;1087884;54;20888;-78
2021/09/19 01:31:49;;;;;;;4.13;2.53;;;;;;;14.76;69.46;99606.03;1087940;54;20030;-78
2021/09/19 01:32:51;;;;;;;5.03;2.80;;;;;;;14.65;69.87;99598.38;1088333;46;20041;-79
2021/09/19 01:33:56;;;;;;;4.75;2.78;;;;;;;14.69;69.45;99606.97;1087931;54;20037;-79
2021/09/19 01:34:57;;;;;;;4.47;2.88;;;;;;;14.72;69.59;99599.38;1087810;54;20058;-79
2021/09/19 01:36:01;;;;;;;5.30;2.92;;;;;;;14.66;69.44;99600.94;1088984;46;20019;-78
2021/09/19 01:37:06;;;;;;;4.43;2.88;;;;;;;14.68;69.46;99592.69;1087874;54;20066;-80
2021/09/19 01:38:10;;;;;;;4.15;2.67;;;;;;;14.67;69.71;99591.00;1087877;54;20031;-79
2021/09/19 01:39:12;;;;;;;5.35;2.75;;;;;;;14.74;69.30;99596.50;1087757;54;20042;-78
2021/09/19 01:40:19;;;;;;;4.50;2.45;;;;;;;14.77;69.03;99602.34;1087850;54;20034;-79
2021/09/19 01:41:22;;;;;;;5.32;2.58;;;;;;;14.77;68.86;99591.56;1087950;54;20682;-78
2021/09/19 01:42:29;;;;;;;4.00;2.47;;;;;;;14.75;69.12;99599.00;1088011;54;20030;-79
2021/09/19 01:43:34;;;;;;;3.95;2.35;;;;;;;14.78;69.04;99598.63;1087913;54;20107;-78
2021/09/19 01:44:36;;;;;;;4.25;2.40;;;;;;;14.79;69.12;99594.94;1088429;46;20052;-78
2021/09/19 01:45:40;;;;;;;5.65;2.80;;;;;;;14.73;69.09;99590.28;1088002;46;20030;-79
2021/09/19 01:46:42;;;;;;;4.15;2.40;;;;;;;14.73;69.07;99595.69;1087875;54;20050;-79
2021/09/19 01:47:46;;;;;;;4.82;2.60;;;;;;;14.78;69.13;99589.75;1087989;47;20041;-79
2021/09/19 01:48:47;;;;;;;4.10;2.20;;;;;;;14.76;69.07;99584.53;1087932;54;20027;-79
2021/09/19 01:49:52;;;;;;;3.92;2.47;;;;;;;14.79;68.82;99588.69;1087884;54;20040;-79
2021/09/19 01:50:56;;;;;;;4.05;2.50;;;;;;;14.73;69.26;99584.06;1087797;54;20069;-79
2021/09/19 01:51:58;;;;;;;5.25;2.20;;;;;;;14.72;69.00;99577.84;1087674;54;20073;-79
2021/09/19 01:53:03;;;;;;;3.92;2.13;;;;;;;14.77;68.74;99578.13;1087790;54;20030;-79
2021/09/19 01:54:04;;;;;;;3.60;2.00;;;;;;;14.77;69.10;99577.31;1087765;54;20034;-78
2021/09/19 01:55:10;;;;;;;4.68;2.35;;;;;;;14.77;68.85;99580.81;1093777;31;20816;-79
2021/09/19 01:56:14;;;;;;;4.10;2.08;;;;;;;14.78;69.09;99582.50;1087387;54;20101;-78
2021/09/19 01:57:22;;;;;;;3.45;2.08;;;;;;;14.82;68.86;99583.81;1087739;54;20753;-79
2021/09/19 01:58:25;;;;;;;3.80;2.22;;;;;;;14.84;68.68;99578.22;1087887;54;20038;-78
2021/09/19 01:59:29;;;;;;;3.45;1.88;;;;;;;14.88;68.62;99581.38;1087513;54;20741;-78
2021/09/19 02:00:33;;;;;;;4.13;2.10;;;;;;;14.88;68.51;99584.06;1085027;54;20030;-78
2021/09/19 02:01:35;;;;;;;3.97;2.42;;;;;;;14.88;68.29;99584.91;1085115;46;20058;-77
2021/09/19 02:02:40;;;;;;;4.22;2.45;;;;;;;14.87;68.65;99574.34;1084915;54;20569;-78
2021/09/19 02:03:42;;;;;;;3.95;2.33;;;;;;;14.86;68.28;99578.88;1084820;54;20044;-78
2021/09/19 02:04:46;;;;;;;3.92;2.28;;;;;;;14.83;68.41;99571.19;1084658;54;20065;-78
2021/09/19 02:05:48;;;;;;;4.45;2.50;;;;;;;14.93;68.47;99573.59;1084978;54;20039;-78
2021/09/19 02:06:52;;;;;;;4.10;2.20;;;;;;;14.95;68.17;99571.56;1084790;54;20569;-77
2021/09/19 02:07:54;;;;;;;3.38;1.95;;;;;;;14.95;67.94;99571.56;1084622;54;20042;-78
2021/09/19 02:08:58;;;;;;;3.65;2.10;;;;;;;14.93;68.37;99581.66;1084852;54;20050;-78
2021/09/19 02:10:00;;;;;;;4.20;2.17;;;;;;;14.96;68.22;99574.06;1084759;54;20042;-78
2021/09/19 02:11:05;;;;;;;4.85;2.20;;;;;;;14.94;67.96;99575.25;1084840;54;20060;-78
2021/09/19 02:12:13;;;;;;;4.85;2.25;;;;;;;14.91;67.95;99570.25;1085641;54;20042;-79
2021/09/19 02:13:17;;;;;;;4.15;2.10;;;;;;;14.85;68.44;99573.69;1087674;54;20110;-78
2021/09/19 02:14:19;;;;;;;4.00;2.20;;;;;;;14.88;68.37;99570.63;1087566;54;20057;-78
2021/09/19 02:15:23;;;;;;;4.30;2.17;;;;;;;14.86;68.27;99564.59;1087013;31;20470;-77
2021/09/19 02:16:26;;;;;;;3.95;2.22;;;;;;;14.88;68.30;99565.25;1085119;54;20061;-77
2021/09/19 02:17:30;;;;;;;4.20;2.42;;;;;;;14.85;68.27;99570.97;1084984;54;20065;-78
2021/09/19 02:18:32;;;;;;;4.55;2.17;;;;;;;14.79;68.32;99568.03;1085147;54;20042;-78
2021/09/19 02:19:36;;;;;;;4.68;2.53;;;;;;;14.82;68.21;99564.97;1084806;54;20038;-77
2021/09/19 02:20:38;;;;;;;3.72;2.22;;;;;;;14.84;68.01;99574.69;1085109;39;20937;-77
2021/09/19 02:21:42;;;;;;;3.70;2.20;;;;;;;14.82;68.02;99570.34;1084794;54;20089;-77
2021/09/19 02:22:45;;;;;;;4.22;2.67;;;;;;;14.78;68.43;99571.72;1084880;54;20039;-78
2021/09/19 02:23:50;;;;;;;4.20;2.25;;;;;;;14.80;68.27;99569.69;1084862;54;20061;-78
2021/09/19 02:24:52;;;;;;;4.03;2.10;;;;;;;14.76;68.13;99567.56;1084965;54;20127;-77
2021/09/19 02:25:56;;;;;;;3.90;2.40;;;;;;;14.76;68.04;99563.00;1084814;54;20624;-78
2021/09/19 02:26:58;;;;;;;5.82;2.28;;;;;;;14.76;68.51;99564.88;1085229;54;20123;-79
2021/09/19 02:28:05;;;;;;;4.20;2.22;;;;;;;14.75;68.48;99561.31;1085021;54;20043;-77
2021/09/19 02:29:06;;;;;;;4.97;2.35;;;;;;;14.68;68.30;99557.72;1085205;46;20049;-77
2021/09/19 02:30:13;;;;;;;3.97;2.40;;;;;;;14.66;68.42;99555.22;1084782;54;20038;-78
2021/09/19 02:31:14;;;;;;;3.88;2.33;;;;;;;14.61;68.60;99554.06;1085187;54;20038;-77
2021/09/19 02:32:18;;;;;;;3.63;2.35;;;;;;;14.58;68.34;99554.41;1085335;46;20065;-78
2021/09/19 02:33:20;;;;;;;4.55;2.63;;;;;;;14.56;68.73;99561.81;1085008;54;20042;-78
2021/09/19 02:34:26;;;;;;;5.00;2.60;;;;;;;14.57;68.56;99552.72;1086790;39;20813;-79
2021/09/19 02:35:28;;;;;;;3.95;2.28;;;;;;;14.60;68.28;99558.56;1084705;54;20061;-78
2021/09/19 02:36:32;;;;;;;5.97;2.53;;;;;;;14.55;68.34;99554.78;1085182;54;20050;-77
2021/09/19 02:37:34;;;;;;;3.60;2.00;;;;;;;14.57;68.39;99550.03;1084818;54;20042;-77
2021/09/19 02:38:39;;;;;;;4.05;2.35;;;;;;;14.58;68.19;99554.41;1084744;54;20041;-77
2021/09/19 02:39:40;;;;;;;4.13;2.33;;;;;;;14.48;68.42;99552.00;1085327;54;20050;-78
2021/09/19 02:40:45;;;;;;;4.47;2.42;;;;;;;14.50;68.43;99553.47;1085475;54;20045;-78
2021/09/19 02:41:46;;;;;;;4.55;2.42;;;;;;;14.39;68.44;99547.72;1085330;54;20053;-78
2021/09/19 02:42:53;;;;;;;5.05;2.88;;;;;;;14.35;68.91;99549.94;1085202;54;20038;-77
2021/09/19 02:43:57;;;;;;;4.53;2.40;;;;;;;14.37;68.59;99542.50;1086511;39;20460;-77
2021/09/19 02:45:02;;;;;;;4.57;2.42;;;;;;;14.38;68.64;99549.53;1085198;54;20038;-77
2021/09/19 02:46:06;;;;;;;4.80;2.38;;;;;;;14.40;68.35;99547.50;1085009;54;20046;-78
2021/09/19 02:47:08;;;;;;;4.13;2.38;;;;;;;14.45;68.33;99542.41;1085306;46;20061;-78
2021/09/19 02:48:12;;;;;;;6.57;2.22;;;;;;;14.47;68.44;99537.69;1084914;54;20068;-78
2021/09/19 02:49:14;;;;;;;4.72;2.53;;;;;;;14.47;68.21;99553.84;1084539;54;20065;-77
2021/09/19 02:50:21;;;;;;;4.00;2.33;;;;;;;14.45;68.40;99545.09;1084643;54;20157;-78
2021/09/19 02:51:22;;;;;;;4.65;2.17;;;;;;;14.51;68.34;99544.41;1084826;54;20042;-77
2021/09/19 02:52:27;;;;;;;3.80;2.15;;;;;;;14.51;68.25;99549.78;1086419;46;20057;-77
2021/09/19 02:53:28;;;;;;;3.88;2.05;;;;;;;14.55;67.90;99544.03;1084802;54;20038;-79
2021/09/19 02:54:32;;;;;;;4.47;2.30;;;;;;;14.51;68.07;99549.78;1084983;54;20168;-79
2021/09/19 02:55:34;;;;;;;4.05;2.15;;;;;;;14.54;68.14;99539.69;1084580;54;20039;-78
2021/09/19 02:56:38;;;;;;;4.05;2.22;;;;;;;14.43;68.07;99547.16;1084643;54;20061;-78
2021/09/19 02:57:40;;;;;;;4.85;2.22;;;;;;;14.36;68.49;99546.19;1085290;54;20038;-77
2021/09/19 02:58:44;;;;;;;4.10;2.40;;;;;;;14.29;68.71;99546.09;1085161;54;20098;-78
2021/09/19 02:59:48;;;;;;;4.10;2.80;;;;;;;14.23;68.84;99530.69;1084848;54;20616;-78
2021/09/19 03:00:53;;;;;;;4.95;2.50;;;;;;;14.19;68.74;99534.78;1085182;54;20061;-78
2021/09/19 03:01:55;;;;;;;4.40;2.25;;;;;;;14.15;68.68;99542.34;1085150;54;20085;-78
2021/09/19 03:02:59;;;;;;;5.30;2.88;;;;;;;14.11;68.88;99537.53;1084925;54;20042;-77
2021/09/19 03:04:00;;;;;;;3.90;2.00;;;;;;;14.18;68.83;99533.91;1084231;54;20042;-77
2021/09/19 03:05:05;;;;;;;3.67;2.40;;;;;;;14.23;68.53;99540.63;1084151;54;20061;-78
2021/09/19 03:06:09;;;;;;;3.42;1.92;;;;;;;14.24;68.31;99532.34;1085498;39;20849;-77
2021/09/19 03:07:11;;;;;;;4.18;2.55;;;;;;;14.19;68.72;99530.22;1085456;54;20123;-78
2021/09/19 03:08:15;;;;;;;4.47;2.05;;;;;;;14.19;68.48;99535.59;1084847;54;20073;-78
2021/09/19 03:09:16;;;;;;;4.18;2.20;;;;;;;14.23;68.35;99535.25;1085166;54;20070;-78
2021/09/19 03:10:20;;;;;;;3.20;1.80;;;;;;;14.27;68.53;99529.31;1085178;39;20853;-78
2021/09/19 03:11:22;;;;;;;3.60;1.83;;;;;;;14.29;68.24;99529.97;1084847;54;20073;-77
2021/09/19 03:12:26;;;;;;;4.07;2.10;;;;;;;14.25;68.47;99527.84;1084986;54;20035;-78
2021/09/19 03:13:28;;;;;;;3.47;1.85;;;;;;;14.25;68.51;99527.84;1086087;46;20046;-77
2021/09/19 03:14:32;;;;;;;3.63;2.17;;;;;;;14.24;68.48;99528.84;1084991;54;20041;-78
2021/09/19 03:15:36;;;;;;;3.65;2.05;;;;;;;14.28;68.42;99530.13;1085015;54;20034;-77
2021/09/19 03:16:40;;;;;;;3.50;1.92;;;;;;;14.30;68.05;99525.44;1085193;54;20031;-77
2021/09/19 03:17:42;;;;;;;3.80;1.85;;;;;;;14.32;68.39;99534.16;1084819;54;20042;-77
2021/09/19 03:18:46;;;;;;;3.40;1.85;;;;;;;14.29;68.13;99524.59;1084757;54;20276;-78
2021/09/19 03:19:48;;;;;;;3.25;1.70;;;;;;;14.24;68.24;99536.91;1084579;54;20038;-77
2021/09/19 03:20:53;;;;;;;3.20;1.65;;;;;;;14.30;68.41;99528.13;1084922;54;20062;-78
2021/09/19 03:21:55;;;;;;;3.38;1.88;;;;;;;14.31;68.17;99530.59;1084622;54;20042;-78
2021/09/19 03:22:59;;;;;;;3.90;1.88;;;;;;;14.28;68.27;99522.94;1084627;54;20045;-77
2021/09/19 03:24:03;;;;;;;3.60;2.15;;;;;;;14.27;68.03;99531.16;1084827;54;20049;-78
2021/09/19 03:25:06;;;;;;;3.85;2.10;;;;;;;14.24;68.13;99526.16;1085548;31;20612;-78
2021/09/19 03:26:11;;;;;;;3.13;1.70;;;;;;;14.30;68.25;99531.66;1084959;54;20057;-78
2021/09/19 03:27:12;;;;;;;5.40;3.42;;;;;;;14.29;68.23;99527.28;1084856;54;20069;-77
2021/09/19 03:28:16;;;;;;;4.88;2.92;;;;;;;14.32;67.84;99523.41;1085496;39;20528;-76
2021/09/19 03:29:19;;;;;;;4.10;2.78;;;;;;;14.28;67.99;99522.06;1085074;47;20062;-78
2021/09/19 03:30:23;;;;;;;4.53;2.90;;;;;;;14.27;68.33;99520.41;1085186;47;20125;-78
2021/09/19 03:31:27;;;;;;;3.72;2.30;;;;;;;14.20;68.17;99521.13;1084864;54;20690;-78
2021/09/19 03:32:31;;;;;;;3.80;2.10;;;;;;;14.23;68.28;99521.78;1085355;54;20042;-78
2021/09/19 03:33:35;;;;;;;3.92;2.38;;;;;;;14.24;68.06;99513.53;1084776;54;20065;-78
2021/09/19 03:34:37;;;;;;;3.65;1.95;;;;;;;14.23;68.37;99513.72;1084913;54;20038;-77
2021/09/19 03:35:42;;;;;;;3.95;2.20;;;;;;;14.20;68.29;99512.25;1085078;54;20046;-76
2021/09/19 03:36:46;;;;;;;4.50;2.13;;;;;;;14.22;68.41;99518.25;1085144;54;20039;-78
2021/09/19 03:37:48;;;;;;;4.15;2.25;;;;;;;14.20;68.48;99513.06;1084911;54;20540;-77
2021/09/19 03:38:53;;;;;;;3.45;1.75;;;;;;;14.12;68.47;99512.31;1085023;54;20034;-78
2021/09/19 03:39:54;;;;;;;3.42;1.88;;;;;;;14.09;68.44;99512.69;1086335;39;20548;-78
2021/09/19 03:40:58;;;;;;;3.85;1.90;;;;;;;14.12;68.46;99509.63;1085870;54;20034;-78
2021/09/19 03:42:00;;;;;;;3.20;1.80;;;;;;;14.18;68.47;99512.41;1085708;54;20065;-78
2021/09/19 03:43:04;;;;;;;3.60;1.80;;;;;;;14.27;68.09;99512.34;1085098;54;20632;-79
2021/09/19 03:44:08;;;;;;;3.17;1.60;;;;;;;14.27;68.13;99515.88;1085503;39;20672;-77
2021/09/19 03:45:13;;;;;;;3.78;2.10;;;;;;;14.17;68.28;99516.13;1085161;54;20991;-79
2021/09/19 03:46:17;;;;;;;4.38;2.08;;;;;;;14.20;68.36;99514.94;1085463;47;20062;-78
2021/09/19 03:47:21;;;;;;;3.90;2.17;;;;;;;14.12;68.14;99512.31;1085143;54;20038;-78
2021/09/19 03:48:26;;;;;;;3.78;2.05;;;;;;;14.08;68.63;99511.81;1085152;54;20039;-78
2021/09/19 03:49:28;;;;;;;3.72;2.08;;;;;;;14.07;68.62;99517.38;1085338;47;20046;-79
2021/09/19 03:50:32;;;;;;;3.75;2.17;;;;;;;14.02;68.61;99513.41;1085182;54;20038;-77
2021/09/19 03:51:33;;;;;;;4.35;2.28;;;;;;;13.95;68.90;99511.63;1086332;54;20670;-79
2021/09/19 03:52:38;;;;;;;4.20;2.58;;;;;;;13.95;68.79;99523.19;1086804;54;20042;-79
2021/09/19 03:53:39;;;;;;;4.72;2.30;;;;;;;13.83;69.12;99525.47;1087123;54;20034;-80
2021/09/19 03:54:43;;;;;;;4.13;2.17;;;;;;;13.93;69.15;99513.63;1086785;54;20042;-78
2021/09/19 03:55:45;;;;;;;3.45;1.83;;;;;;;13.98;68.88;99516.63;1086821;54;20046;-78
2021/09/19 03:56:49;;;;;;;4.15;2.20;;;;;;;13.98;69.08;99516.63;1088309;47;20050;-79
2021/09/19 03:57:51;;;;;;;4.45;2.00;;;;;;;14.01;68.81;99513.56;1087249;54;20061;-80
2021/09/19 03:58:55;;;;;;;3.58;1.88;;;;;;;14.05;68.89;99517.56;1087030;54;20038;-79
2021/09/19 03:59:59;;;;;;;3.80;1.95;;;;;;;14.03;68.77;99511.53;1086915;54;20065;-79
2021/09/19 04:01:03;;;;;;;3.88;1.98;;;;;;;14.02;68.92;99507.19;1086701;54;20042;-79
2021/09/19 04:02:05;;;;;;;3.92;2.10;;;;;;;14.04;68.53;99510.53;1086533;54;20042;-78
2021/09/19 04:03:12;;;;;;;3.35;1.63;;;;;;;14.07;68.70;99514.69;1086585;54;20061;-79
2021/09/19 04:04:14;;;;;;;3.60;2.13;;;;;;;13.99;69.03;99511.06;1086559;54;20038;-78
2021/09/19 04:05:19;;;;;;;4.30;2.38;;;;;;;14.00;68.64;99511.91;1086381;47;20035;-79
2021/09/19 04:06:21;;;;;;;3.90;2.00;;;;;;;14.03;68.85;99514.22;1086312;54;20046;-78
2021/09/19 04:07:26;;;;;;;3.83;2.45;;;;;;;14.03;68.92;99516.91;1085929;54;20050;-80
2021/09/19 04:08:28;;;;;;;3.72;1.70;;;;;;;14.04;68.62;99527.47;1086160;47;20038;-79
2021/09/19 04:09:33;;;;;;;3.92;2.00;;;;;;;14.00;68.92;99519.94;1086363;54;20058;-78
2021/09/19 04:10:37;;;;;;;4.05;2.10;;;;;;;13.98;68.94;99522.00;1086353;54;20053;-77
2021/09/19 04:11:39;;;;;;;4.47;2.00;;;;;;;14.06;69.04;99526.47;1086211;54;20050;-76
2021/09/19 04:12:44;;;;;;;3.53;2.05;;;;;;;14.07;68.88;99526.31;1085717;54;20038;-77
2021/09/19 04:13:46;;;;;;;3.58;2.20;;;;;;;14.01;68.73;99521.63;1091925;31;20740;-76
2021/09/19 04:14:50;;;;;;;5.25;2.15;;;;;;;14.05;68.80;99522.97;1085041;54;20046;-76
2021/09/19 04:15:55;;;;;;;4.80;2.05;;;;;;;14.03;69.07;99527.66;1085143;54;20042;-76
2021/09/19 04:16:56;;;;;;;3.60;1.90;;;;;;;14.05;68.68;99522.97;1084878;54;20042;-77
2021/09/19 04:18:01;;;;;;;3.67;2.08;;;;;;;14.01;68.87;99518.94;1085653;54;20046;-77
2021/09/19 04:19:08;;;;;;;4.13;2.35;;;;;;;13.92;69.46;99526.25;1085252;54;20042;-80
2021/09/19 04:20:14;;;;;;;3.58;2.10;;;;;;;14.02;68.94;99529.53;1085549;31;20521;-76
2021/09/19 04:21:16;;;;;;;3.60;1.90;;;;;;;14.07;69.00;99520.06;1085361;54;20034;-77
2021/09/19 04:22:23;;;;;;;4.47;2.00;;;;;;;14.08;68.82;99522.56;1085388;54;20038;-78
2021/09/19 04:23:26;;;;;;;3.50;1.98;;;;;;;13.96;69.38;99519.47;1085405;54;20599;-77
2021/09/19 04:24:31;;;;;;;3.72;2.15;;;;;;;14.02;69.16;99534.91;1085410;54;20038;-77
2021/09/19 04:25:33;;;;;;;3.38;1.90;;;;;;;14.06;68.82;99524.63;1086348;39;20548;-78
2021/09/19 04:26:38;;;;;;;4.15;2.30;;;;;;;14.02;68.95;99529.53;1085079;54;20038;-78
2021/09/19 04:27:39;;;;;;;3.70;2.13;;;;;;;13.97;69.23;99523.84;1085129;54;20161;-78
2021/09/19 04:28:43;;;;;;;3.53;1.80;;;;;;;14.04;69.13;99522.09;1085048;54;20050;-79
2021/09/19 04:29:48;;;;;;;3.60;2.00;;;;;;;14.04;69.17;99527.47;1085347;54;20053;-78
2021/09/19 04:30:50;;;;;;;3.80;1.80;;;;;;;14.02;69.33;99528.69;1084989;54;20039;-78
2021/09/19 04:31:54;;;;;;;4.55;2.35;;;;;;;14.01;69.21;99529.69;1085184;54;20034;-79
2021/09/19 04:32:56;;;;;;;2.97;1.70;;;;;;;13.98;69.44;99520.16;1085417;54;20031;-77
2021/09/19 04:34:01;;;;;;;3.58;1.92;;;;;;;14.01;69.06;99524.31;1085287;54;20054;-78
2021/09/19 04:35:09;;;;;;;4.45;1.80;;;;;;;14.00;69.10;99525.31;1085020;54;20065;-78
2021/09/19 04:36:11;;;;;;;3.53;1.95;;;;;;;13.97;69.12;99531.09;1085608;54;20038;-79
2021/09/19 04:37:16;;;;;;;4.18;2.28;;;;;;;13.92;69.56;99530.78;1085895;39;20517;-79
2021/09/19 04:38:18;;;;;;;3.92;2.15;;;;;;;13.88;69.38;99517.72;1085463;54;20038;-78
2021/09/19 04:39:23;;;;;;;3.92;2.40;;;;;;;13.88;69.71;99527.59;1085526;54;20061;-78
2021/09/19 04:40:25;;;;;;;4.38;2.50;;;;;;;13.87;69.63;99534.84;1085540;54;20038;-78
2021/09/19 04:41:29;;;;;;;4.32;2.33;;;;;;;13.93;69.33;99524.38;1085345;39;20452;-78
2021/09/19 04:42:31;;;;;;;3.78;2.22;;;;;;;13.86;69.46;99529.63;1085200;54;20072;-79
2021/09/19 04:43:36;;;;;;;4.07;2.03;;;;;;;13.91;69.74;99531.78;1085290;54;20114;-79
2021/09/19 04:44:39;;;;;;;5.40;2.38;;;;;;;13.85;69.63;99531.50;1086028;39;20437;-79
2021/09/19 04:45:43;;;;;;;3.97;2.05;;;;;;;13.92;69.40;99541.53;1085875;31;20525;-79
2021/09/19 04:46:45;;;;;;;4.13;2.00;;;;;;;13.88;69.49;99533.84;1085231;54;20061;-78
2021/09/19 04:47:49;;;;;;;4.30;2.25;;;;;;;13.95;69.42;99538.47;1085550;31;20537;-78
2021/09/19 04:48:55;;;;;;;3.70;2.00;;;;;;;13.92;69.40;99539.69;1085127;54;20604;-78
2021/09/19 04:49:59;;;;;;;4.05;2.17;;;;;;;13.95;69.52;99543.84;1085186;54;20030;-79
2021/09/19 04:51:03;;;;;;;3.72;2.03;;;;;;;13.97;69.20;99545.34;1085643;39;20453;-79
2021/09/19 04:52:09;;;;;;;4.22;2.13;;;;;;;13.98;69.29;99543.50;1084493;54;20043;-78
2021/09/19 04:53:13;;;;;;;4.43;2.25;;;;;;;13.96;69.33;99545.53;1084780;54;20043;-78
2021/09/19 04:54:15;;;;;;;4.40;2.13;;;;;;;13.96;69.49;99546.34;1085432;39;20543;-78
2021/09/19 04:55:19;;;;;;;3.92;2.30;;;;;;;13.70;70.13;99546.69;1086133;54;20039;-78
2021/09/19 04:56:23;;;;;;;4.18;2.33;;;;;;;13.78;69.88;99551.19;1086915;54;20043;-79
2021/09/19 04:57:28;;;;;;;3.78;2.30;;;;;;;13.81;69.90;99554.34;1085633;54;20046;-78
2021/09/19 04:58:29;;;;;;;4.30;2.60;;;;;;;13.88;69.81;99551.78;1085280;54;20098;-79
2021/09/19 04:59:35;;;;;;;4.47;2.70;;;;;;;13.83;69.75;99552.31;1085265;47;20628;-79
2021/09/19 05:00:37;;;;;;;3.80;2.28;;;;;;;13.89;69.53;99550.78;1085161;54;20046;-78